Time;durP1;ratioP1;P1;durP2;ratioP2;P2;SDS_P1;SDS_P2;PMS_P1;PMS_P2;Temp;Humidity;BMP_temperature;BMP_pressure;BME280_temperature;BME280_humidity;BME280_pressure;Samples;Min_cycle;Max_cycle;Signal;HPM_P1;HPM_P2
2022/01/22 00:01:57;;;;;;;20.42;6.47;;;2.40;99.90;;;;;;5038002;28;20366;-85
2022/01/22 00:04:23;;;;;;;17.83;7.15;;;2.40;99.90;;;;;;5037183;28;20040;-84
2022/01/22 00:06:54;;;;;;;19.42;7.25;;;2.40;99.90;;;;;;5036965;28;20081;-84
2022/01/22 00:09:28;;;;;;;16.30;6.55;;;2.40;99.90;;;;;;5037139;28;20048;-84
2022/01/22 00:11:55;;;;;;;16.40;6.88;;;2.40;99.90;;;;;;5037486;28;20035;-84
2022/01/22 00:14:24;;;;;;;12.93;6.28;;;2.40;99.90;;;;;;5037334;28;20021;-83
2022/01/22 00:16:56;;;;;;;20.08;7.25;;;2.40;99.90;;;;;;5021024;28;20515;-84
2022/01/22 00:19:25;;;;;;;20.13;7.15;;;2.40;99.90;;;;;;5053745;28;20028;-84
2022/01/22 00:21:53;;;;;;;18.75;7.35;;;2.40;99.90;;;;;;5053749;28;20508;-84
2022/01/22 00:24:19;;;;;;;21.40;6.93;;;2.40;99.90;;;;;;5052937;28;20037;-84
2022/01/22 00:26:46;;;;;;;16.08;7.10;;;2.40;99.90;;;;;;5053255;28;20063;-84
2022/01/22 00:29:12;;;;;;;15.82;7.63;;;2.40;99.90;;;;;;5053358;28;20123;-84
2022/01/22 00:31:42;;;;;;;17.25;6.90;;;2.40;99.90;;;;;;5026278;28;20037;-84
2022/01/22 00:34:13;;;;;;;20.83;7.63;;;2.40;99.90;;;;;;5049156;28;20396;-84
2022/01/22 00:36:39;;;;;;;13.80;7.10;;;2.40;99.90;;;;;;5052944;28;20048;-84
2022/01/22 00:39:09;;;;;;;18.20;7.05;;;2.40;99.90;;;;;;5071029;28;20115;-84
2022/01/22 00:41:35;;;;;;;14.77;7.20;;;2.40;99.90;;;;;;5053577;28;20043;-84
2022/01/22 00:44:00;;;;;;;16.25;6.95;;;2.40;99.90;;;;;;5032525;28;20021;-84
2022/01/22 00:46:26;;;;;;;18.98;8.45;;;2.40;99.90;;;;;;5043997;28;20086;-84
2022/01/22 00:48:53;;;;;;;18.92;7.10;;;2.40;99.90;;;;;;5050855;28;20115;-85
2022/01/22 00:51:22;;;;;;;17.13;7.72;;;2.40;99.90;;;;;;5044718;28;20036;-84
2022/01/22 00:53:48;;;;;;;17.02;7.45;;;2.40;99.90;;;;;;5042689;28;20025;-83
2022/01/22 00:56:14;;;;;;;15.95;7.88;;;2.40;99.90;;;;;;5033309;28;20044;-84
2022/01/22 00:58:39;;;;;;;15.40;7.55;;;2.40;99.90;;;;;;5041645;28;20067;-84
2022/01/22 01:01:12;;;;;;;24.27;7.88;;;2.40;99.90;;;;;;5053158;28;20108;-84
2022/01/22 01:03:38;;;;;;;23.48;7.53;;;2.50;99.90;;;;;;5040618;28;20436;-84
2022/01/22 01:06:08;;;;;;;23.10;8.35;;;2.50;99.90;;;;;;5039491;28;20044;-84
2022/01/22 01:08:39;;;;;;;19.70;7.53;;;2.50;99.90;;;;;;5018800;28;20047;-84
2022/01/22 01:11:06;;;;;;;21.80;7.90;;;2.50;99.90;;;;;;5017555;28;20045;-84
2022/01/22 01:13:38;;;;;;;21.15;7.97;;;2.50;99.90;;;;;;5049462;28;20551;-84
2022/01/22 01:16:21;;;;;;;18.90;8.35;;;2.50;99.90;;;;;;5022844;28;20063;-84
2022/01/22 01:32:52;;;;;;;27.60;8.30;;;2.50;99.90;;;;;;5041544;28;20512;-84
2022/01/22 01:35:32;;;;;;;18.38;7.43;;;2.50;99.90;;;;;;5053771;28;20465;-84
2022/01/22 01:38:00;;;;;;;18.00;7.43;;;2.50;99.90;;;;;;5033019;28;20120;-84
2022/01/22 01:40:27;;;;;;;19.80;8.45;;;2.50;99.90;;;;;;5049122;28;20108;-85
2022/01/22 01:43:08;;;;;;;14.70;7.13;;;2.50;99.90;;;;;;5055421;28;20044;-85
2022/01/22 01:45:37;;;;;;;20.15;7.60;;;2.50;99.90;;;;;;5035716;28;20481;-84
2022/01/22 01:48:12;;;;;;;17.33;7.80;;;2.50;99.90;;;;;;5048810;28;20499;-84
2022/01/22 01:50:42;;;;;;;20.45;8.45;;;2.50;99.90;;;;;;5036135;28;20082;-85
2022/01/22 01:53:15;;;;;;;18.63;7.28;;;2.50;99.90;;;;;;5052337;28;20029;-84
2022/01/22 01:58:29;;;;;;;15.25;7.65;;;2.50;99.90;;;;;;5039653;28;20036;-84
2022/01/22 02:01:03;;;;;;;18.33;6.80;;;2.50;99.90;;;;;;5051565;28;20513;-83
2022/01/22 02:03:32;;;;;;;13.68;7.25;;;2.50;99.90;;;;;;5040876;28;20413;-84
2022/01/22 02:06:01;;;;;;;15.60;7.28;;;2.50;99.90;;;;;;5035065;28;20123;-84
2022/01/22 02:08:28;;;;;;;15.02;6.80;;;2.60;99.90;;;;;;5019780;28;20405;-84
2022/01/22 02:11:00;;;;;;;21.42;6.85;;;2.50;99.90;;;;;;5052101;28;20032;-84
2022/01/22 02:24:59;;;;;;;17.00;6.60;;;2.60;99.90;;;;;;5074328;28;20059;-85
2022/01/22 02:27:25;;;;;;;16.85;7.32;;;2.60;99.90;;;;;;5038499;28;20112;-85
2022/01/22 02:29:50;;;;;;;15.80;7.45;;;2.60;99.90;;;;;;5055661;28;20086;-84
2022/01/22 02:35:33;;;;;;;23.02;6.32;;;2.60;99.90;;;;;;5059131;28;20089;-84
2022/01/22 02:38:08;;;;;;;25.02;7.15;;;2.60;99.90;;;;;;5028232;28;20438;-85
2022/01/22 02:40:43;;;;;;;18.13;7.90;;;2.60;99.90;;;;;;5055941;28;20032;-84
2022/01/22 02:43:13;;;;;;;17.85;7.53;;;2.60;99.90;;;;;;5054641;28;20028;-85
2022/01/22 02:45:41;;;;;;;16.67;7.38;;;2.60;99.90;;;;;;5056609;28;20030;-84
2022/01/22 02:48:28;;;;;;;19.13;6.90;;;2.60;99.90;;;;;;5054687;28;20661;-84
2022/01/22 02:50:57;;;;;;;19.10;7.50;;;2.60;99.90;;;;;;5037454;28;20033;-84
2022/01/22 02:53:23;;;;;;;20.80;7.35;;;2.60;99.90;;;;;;5047713;28;20025;-83
2022/01/22 02:55:49;;;;;;;23.83;6.93;;;2.60;99.90;;;;;;5038622;28;20017;-84
2022/01/22 02:58:15;;;;;;;13.05;6.70;;;2.60;99.90;;;;;;5018568;28;20093;-84
2022/01/22 03:00:44;;;;;;;23.38;8.13;;;2.60;99.90;;;;;;5035524;28;20124;-84
2022/01/22 03:03:10;;;;;;;18.42;7.78;;;2.60;99.90;;;;;;5051345;28;20043;-84
2022/01/22 03:05:36;;;;;;;20.15;7.85;;;2.60;99.90;;;;;;5052179;28;20026;-84
2022/01/22 03:08:10;;;;;;;17.50;8.27;;;2.60;99.90;;;;;;5054031;28;20492;-84
2022/01/22 03:10:43;;;;;;;20.55;7.88;;;2.60;99.90;;;;;;5053941;28;20067;-84
2022/01/22 03:13:46;;;;;;;19.83;7.38;;;2.60;99.90;;;;;;5038288;28;20068;-84
2022/01/22 03:16:08;;;;;;;16.73;7.18;;;2.60;99.90;;;;;;5031824;28;20032;-84
2022/01/22 03:29:31;;;;;;;16.77;7.13;;;2.50;99.90;;;;;;5053311;28;20259;-84
2022/01/22 03:32:04;;;;;;;16.45;7.22;;;2.50;99.90;;;;;;5038550;28;20024;-84
2022/01/22 03:34:36;;;;;;;19.38;7.22;;;2.50;99.90;;;;;;5054210;28;20033;-84
2022/01/22 03:37:04;;;;;;;15.23;7.10;;;2.50;99.90;;;;;;5022654;28;20031;-84
2022/01/22 03:39:30;;;;;;;12.35;6.22;;;2.50;99.90;;;;;;5072844;28;20017;-84
2022/01/22 03:41:56;;;;;;;17.27;7.22;;;2.50;99.90;;;;;;5062416;28;20024;-84
2022/01/22 03:44:22;;;;;;;17.80;6.53;;;2.50;99.90;;;;;;5055024;28;20031;-83
2022/01/22 03:46:54;;;;;;;16.17;6.93;;;2.50;99.90;;;;;;5015624;28;20021;-83
2022/01/22 03:49:23;;;;;;;21.50;7.47;;;2.50;99.90;;;;;;5034124;28;20067;-83
2022/01/22 03:51:57;;;;;;;16.15;6.78;;;2.40;99.90;;;;;;5036521;28;20060;-82
2022/01/22 03:54:23;;;;;;;19.98;7.35;;;2.50;99.90;;;;;;5019750;28;20090;-83
2022/01/22 03:56:51;;;;;;;20.67;7.18;;;2.50;99.90;;;;;;5071127;28;20024;-83
2022/01/22 03:59:20;;;;;;;16.27;7.72;;;2.40;99.90;;;;;;5037559;28;20695;-83
2022/01/22 04:04:43;;;;;;;17.55;6.38;;;2.50;99.90;;;;;;5023185;28;20463;-82
2022/01/22 04:09:45;;;;;;;15.20;6.63;;;2.50;99.90;;;;;;5054850;28;20409;-83
2022/01/22 04:12:21;;;;;;;15.30;7.10;;;2.50;99.90;;;;;;5017259;28;20044;-83
2022/01/22 04:14:53;;;;;;;21.88;6.18;;;2.50;99.90;;;;;;5033751;28;20509;-82
2022/01/22 04:17:37;;;;;;;14.32;6.13;;;2.50;99.90;;;;;;5052920;28;20097;-83
2022/01/22 04:25:48;;;;;;;12.05;5.55;;;2.50;99.90;;;;;;5055590;28;20070;-82
2022/01/22 04:28:15;;;;;;;13.80;6.10;;;2.50;99.90;;;;;;5054171;28;20039;-83
2022/01/22 04:30:41;;;;;;;18.73;5.82;;;2.50;99.90;;;;;;5036059;28;20498;-83
2022/01/22 04:33:06;;;;;;;15.57;6.13;;;2.50;99.90;;;;;;5033008;28;20032;-83
2022/01/22 04:35:35;;;;;;;15.05;5.47;;;2.50;99.90;;;;;;5057227;28;20119;-82
2022/01/22 04:38:01;;;;;;;14.48;6.60;;;2.50;99.90;;;;;;5036746;28;20438;-83
2022/01/22 04:40:27;;;;;;;12.32;6.25;;;2.50;99.90;;;;;;5035987;28;20056;-83
2022/01/22 04:42:53;;;;;;;24.30;6.05;;;2.50;99.90;;;;;;5035338;28;20032;-83
2022/01/22 04:47:56;;;;;;;19.75;5.72;;;2.50;99.90;;;;;;5053424;28;20024;-83
2022/01/22 04:55:43;;;;;;;13.82;6.32;;;2.50;99.90;;;;;;5070870;28;20039;-83
2022/01/22 04:58:08;;;;;;;;;;;2.50;99.90;;;;;;5052052;28;20016;-83
2022/01/22 05:00:37;;;;;;;17.05;5.80;;;2.40;99.90;;;;;;5052803;28;19923;-83
2022/01/22 05:03:04;;;;;;;22.42;6.72;;;2.40;99.90;;;;;;5032254;28;20029;-83
2022/01/22 05:05:30;;;;;;;11.85;5.75;;;2.40;99.90;;;;;;5049196;28;20408;-83
2022/01/22 05:08:00;;;;;;;17.77;5.82;;;2.40;99.90;;;;;;5061985;28;20443;-83
2022/01/22 05:10:29;;;;;;;15.60;5.40;;;2.40;99.90;;;;;;5053109;28;20029;-82
2022/01/22 05:12:55;;;;;;;12.00;5.60;;;2.40;99.90;;;;;;5051677;28;20064;-84
2022/01/22 05:15:21;;;;;;;14.45;5.63;;;2.40;99.90;;;;;;5052403;28;20430;-83
2022/01/22 05:17:48;;;;;;;10.98;5.50;;;2.40;99.90;;;;;;5051474;28;20028;-82
2022/01/22 05:25:38;;;;;;;15.73;5.57;;;2.40;99.90;;;;;;5055610;28;20043;-83
2022/01/22 05:33:33;;;;;;;15.25;5.90;;;2.40;99.90;;;;;;5053319;28;20043;-82
2022/01/22 05:38:43;;;;;;;15.52;5.78;;;2.40;99.90;;;;;;5054758;28;20409;-83
2022/01/22 05:41:10;;;;;;;11.32;4.45;;;2.40;99.90;;;;;;5019287;28;20024;-83
2022/01/22 05:43:37;;;;;;;15.43;5.25;;;2.40;99.90;;;;;;5069615;28;20457;-82
2022/01/22 05:46:06;;;;;;;10.80;5.18;;;2.40;99.90;;;;;;5034693;28;20070;-83
2022/01/22 05:48:32;;;;;;;10.35;5.20;;;2.40;99.90;;;;;;5037385;28;20033;-83
2022/01/22 05:51:05;;;;;;;19.85;4.93;;;2.40;99.90;;;;;;5020694;28;20132;-83
2022/01/22 06:01:51;;;;;;;14.75;4.28;;;2.40;99.90;;;;;;5050742;28;20043;-83
2022/01/22 06:04:17;;;;;;;9.75;5.00;;;2.40;99.90;;;;;;5038559;28;20029;-83
2022/01/22 06:06:43;;;;;;;13.52;5.25;;;2.40;99.90;;;;;;5037494;28;20029;-83
2022/01/22 06:09:10;;;;;;;7.20;4.38;;;2.40;99.90;;;;;;5046151;28;20129;-83
2022/01/22 06:12:14;;;;;;;10.23;4.45;;;2.40;99.90;;;;;;5033723;28;20052;-83
2022/01/22 06:14:42;;;;;;;10.93;4.68;;;2.40;99.90;;;;;;5055084;28;20025;-83
2022/01/22 06:17:11;;;;;;;8.70;4.13;;;2.40;99.90;;;;;;5072468;28;20470;-83
2022/01/22 06:19:37;;;;;;;11.40;4.55;;;2.50;99.90;;;;;;5049781;28;20119;-83
2022/01/22 06:22:03;;;;;;;11.65;4.20;;;2.50;99.90;;;;;;5046409;28;20470;-83
2022/01/22 06:24:28;;;;;;;6.68;3.85;;;2.50;99.90;;;;;;5042363;28;20477;-83
2022/01/22 06:26:58;;;;;;;15.02;4.53;;;2.50;99.90;;;;;;5017871;28;20444;-83
2022/01/22 06:29:23;;;;;;;17.38;5.20;;;2.50;99.90;;;;;;5019304;28;20386;-83
2022/01/22 06:31:50;;;;;;;13.32;4.30;;;2.50;99.90;;;;;;5048372;28;20083;-83
2022/01/22 06:34:15;;;;;;;8.90;4.90;;;2.50;99.90;;;;;;5058636;28;20473;-83
2022/01/22 06:36:41;;;;;;;13.05;4.18;;;2.50;99.90;;;;;;5035439;28;20071;-83
2022/01/22 06:39:18;;;;;;;12.18;4.38;;;2.50;99.90;;;;;;5036729;28;20210;-83
2022/01/22 06:41:47;;;;;;;11.88;4.47;;;2.50;99.90;;;;;;5038647;28;20319;-83
2022/01/22 06:44:15;;;;;;;11.15;4.68;;;2.50;99.90;;;;;;5042734;28;20397;-83
2022/01/22 06:46:43;;;;;;;9.25;3.90;;;2.50;99.90;;;;;;5047493;28;20032;-83
2022/01/22 06:49:08;;;;;;;7.10;3.97;;;2.50;99.90;;;;;;5041122;28;20535;-83
2022/01/22 06:51:34;;;;;;;9.27;4.38;;;2.50;99.90;;;;;;5035952;28;20040;-83
2022/01/22 06:54:03;;;;;;;19.77;4.60;;;2.50;99.90;;;;;;5054120;28;20025;-83
2022/01/22 06:56:30;;;;;;;12.27;4.20;;;2.50;99.90;;;;;;5051813;28;20028;-83
2022/01/22 06:58:58;;;;;;;12.30;4.45;;;2.50;99.90;;;;;;5052488;28;20523;-83
2022/01/22 07:01:26;;;;;;;12.35;4.75;;;2.50;99.90;;;;;;5062569;28;20429;-83
2022/01/22 07:03:53;;;;;;;13.85;4.65;;;2.50;99.90;;;;;;5051009;28;20040;-83
2022/01/22 07:06:19;;;;;;;12.30;4.15;;;2.50;99.90;;;;;;5071437;28;20107;-83
2022/01/22 07:08:48;;;;;;;17.00;4.32;;;2.50;99.90;;;;;;5053065;28;20033;-83
2022/01/22 07:11:17;;;;;;;9.75;4.20;;;2.50;99.90;;;;;;5037592;28;20047;-83
2022/01/22 07:13:50;;;;;;;15.73;4.03;;;2.40;99.90;;;;;;5049117;28;20610;-83
2022/01/22 07:16:15;;;;;;;14.55;4.43;;;2.40;99.90;;;;;;5052116;28;20429;-83
2022/01/22 07:18:43;;;;;;;13.73;4.60;;;2.40;99.90;;;;;;5049466;28;20036;-83
2022/01/22 07:21:18;;;;;;;6.97;3.75;;;2.40;99.90;;;;;;5041747;28;20082;-83
2022/01/22 07:26:13;;;;;;;11.13;4.40;;;2.40;99.90;;;;;;5044157;28;20040;-83
2022/01/22 07:28:41;;;;;;;13.52;3.83;;;2.40;99.90;;;;;;5051716;28;20099;-83
2022/01/22 07:31:08;;;;;;;5.90;3.50;;;2.40;99.90;;;;;;5037336;28;20029;-83
2022/01/22 07:33:34;;;;;;;12.52;4.15;;;2.40;99.90;;;;;;5062883;28;20029;-83
2022/01/22 07:36:01;;;;;;;16.08;4.70;;;2.50;99.90;;;;;;5047039;28;20033;-83
2022/01/22 07:38:27;;;;;;;13.95;4.13;;;2.50;99.90;;;;;;5064249;28;20100;-83
2022/01/22 07:40:56;;;;;;;8.88;4.00;;;2.40;99.90;;;;;;5054072;28;20135;-83
2022/01/22 07:43:24;;;;;;;8.45;4.30;;;2.50;99.90;;;;;;5036681;28;20040;-83
2022/01/22 07:45:50;;;;;;;9.18;4.70;;;2.50;99.90;;;;;;5037166;28;20032;-83
2022/01/22 07:48:16;;;;;;;8.10;4.13;;;2.50;99.90;;;;;;5018506;28;20321;-83
2022/01/22 07:50:44;;;;;;;10.93;4.03;;;2.50;99.90;;;;;;5053367;28;20511;-83
2022/01/22 07:53:10;;;;;;;8.27;3.75;;;2.50;99.90;;;;;;5037011;28;20052;-83
2022/01/22 07:55:44;;;;;;;10.80;3.40;;;2.60;99.90;;;;;;5034926;28;20029;-83
2022/01/22 07:58:14;;;;;;;8.48;4.32;;;2.60;99.90;;;;;;5040219;28;20033;-83
2022/01/22 08:00:40;;;;;;;14.93;3.75;;;2.60;99.90;;;;;;5054142;28;20379;-83
2022/01/22 08:03:07;;;;;;;14.50;4.18;;;2.60;99.90;;;;;;5039253;28;20036;-83
2022/01/22 08:05:32;;;;;;;10.20;4.97;;;2.60;99.90;;;;;;5052605;28;20086;-83
2022/01/22 08:08:01;;;;;;;13.68;4.88;;;2.70;99.90;;;;;;5024253;28;20041;-83
2022/01/22 08:10:31;;;;;;;7.22;4.30;;;2.70;99.90;;;;;;5050535;28;20068;-83
2022/01/22 08:12:56;;;;;;;11.98;4.63;;;2.70;99.90;;;;;;5053820;28;20439;-83
2022/01/22 08:15:22;;;;;;;11.68;3.95;;;2.70;99.90;;;;;;5037323;28;20029;-83
2022/01/22 08:17:48;;;;;;;14.07;5.10;;;2.80;99.90;;;;;;5019079;28;20091;-83
2022/01/22 08:20:24;;;;;;;10.23;4.70;;;2.80;99.90;;;;;;5038851;28;20055;-83
2022/01/22 08:22:53;;;;;;;10.32;4.68;;;2.80;99.90;;;;;;5028101;28;20036;-84
2022/01/22 08:25:21;;;;;;;12.43;4.10;;;2.80;99.90;;;;;;5040142;28;20050;-84
2022/01/22 08:30:34;;;;;;;17.92;4.97;;;2.90;99.90;;;;;;5043807;28;20024;-84
2022/01/22 08:33:30;;;;;;;12.95;5.00;;;3.00;99.90;;;;;;5054624;28;20028;-83
2022/01/22 08:35:55;;;;;;;8.93;4.68;;;3.10;99.90;;;;;;5036087;28;20501;-84
2022/01/22 08:38:26;;;;;;;9.52;4.30;;;3.10;99.90;;;;;;5065370;28;20098;-84
2022/01/22 08:40:52;;;;;;;;;;;3.10;99.90;;;;;;5018881;28;20477;-84
2022/01/22 08:43:18;;;;;;;17.73;4.47;;;3.10;99.90;;;;;;5054381;28;19908;-83
2022/01/22 08:45:47;;;;;;;10.40;4.57;;;3.10;99.90;;;;;;5037239;28;20044;-83
2022/01/22 08:48:13;;;;;;;9.23;4.25;;;3.10;99.90;;;;;;5036048;28;20032;-84
2022/01/22 08:50:41;;;;;;;16.63;5.35;;;3.10;99.90;;;;;;5068580;28;20543;-83
2022/01/22 08:53:06;;;;;;;10.43;4.75;;;3.10;99.90;;;;;;5020927;28;20021;-83
2022/01/22 08:55:32;;;;;;;13.35;4.85;;;3.20;99.90;;;;;;5019959;28;20439;-83
2022/01/22 08:57:58;;;;;;;11.27;4.78;;;3.20;99.90;;;;;;5046097;28;20035;-83
2022/01/22 09:00:33;;;;;;;12.45;4.88;;;3.20;99.90;;;;;;5036421;28;20059;-84
2022/01/22 09:02:59;;;;;;;7.65;4.13;;;3.20;99.90;;;;;;5053781;28;20103;-83
2022/01/22 09:05:31;;;;;;;8.70;4.35;;;3.30;99.90;;;;;;5020921;28;20039;-83
2022/01/22 09:07:57;;;;;;;11.10;4.55;;;3.30;99.90;;;;;;5038250;28;20054;-83
2022/01/22 09:10:23;;;;;;;16.08;5.68;;;3.40;99.90;;;;;;5020135;28;20025;-84
2022/01/22 09:12:49;;;;;;;10.68;4.90;;;3.40;99.90;;;;;;5036045;28;20032;-83
2022/01/22 09:15:14;;;;;;;8.07;4.57;;;3.50;99.90;;;;;;5020057;28;20074;-84
2022/01/22 09:17:43;;;;;;;19.10;5.40;;;3.50;99.90;;;;;;5045914;28;20032;-84
2022/01/22 09:20:19;;;;;;;10.35;4.47;;;3.40;99.90;;;;;;5034069;28;20036;-84
2022/01/22 09:22:51;;;;;;;15.13;4.60;;;3.40;99.90;;;;;;5003297;28;20033;-84
2022/01/22 09:25:21;;;;;;;10.57;5.03;;;3.40;99.90;;;;;;5016167;28;20128;-83
2022/01/22 09:27:50;;;;;;;11.20;5.15;;;3.40;99.90;;;;;;5032773;28;20052;-84
2022/01/22 09:30:15;;;;;;;10.35;4.38;;;3.50;99.90;;;;;;5016351;28;20090;-83
2022/01/22 09:32:41;;;;;;;12.00;4.55;;;3.50;99.90;;;;;;5032973;28;20029;-84
2022/01/22 09:35:08;;;;;;;13.20;4.80;;;3.60;99.90;;;;;;5032102;28;20053;-84
2022/01/22 09:37:46;;;;;;;15.07;5.50;;;3.60;99.90;;;;;;5018077;28;20033;-84
2022/01/22 09:40:15;;;;;;;9.00;5.05;;;3.70;99.90;;;;;;5018286;28;20032;-84
2022/01/22 09:42:41;;;;;;;11.15;5.22;;;3.70;99.90;;;;;;5033257;28;20464;-84
2022/01/22 09:45:08;;;;;;;13.20;4.97;;;3.80;99.90;;;;;;5018851;28;20052;-83
2022/01/22 09:47:39;;;;;;;8.63;4.65;;;3.80;99.90;;;;;;5032246;28;20116;-84
2022/01/22 09:50:05;;;;;;;11.15;4.88;;;3.90;99.90;;;;;;5044076;28;20038;-83
2022/01/22 09:52:31;;;;;;;12.95;4.55;;;4.00;99.90;;;;;;5052447;28;20037;-83
2022/01/22 09:55:00;;;;;;;10.07;4.93;;;4.10;99.90;;;;;;5035642;28;20516;-84
2022/01/22 09:57:26;;;;;;;15.45;5.47;;;4.20;99.90;;;;;;5051346;28;20025;-84
2022/01/22 09:59:52;;;;;;;11.45;4.70;;;4.20;99.90;;;;;;5052240;28;20417;-83
2022/01/22 10:02:20;;;;;;;9.43;4.80;;;4.30;99.90;;;;;;5036078;28;20070;-83
2022/01/22 10:04:52;;;;;;;12.60;5.25;;;4.30;99.90;;;;;;5034260;28;20092;-83
2022/01/22 10:07:23;;;;;;;10.23;4.75;;;4.40;99.90;;;;;;5049706;28;20093;-83
2022/01/22 10:10:01;;;;;;;10.75;5.30;;;4.40;99.90;;;;;;5031159;28;20033;-84
2022/01/22 10:12:29;;;;;;;12.68;5.07;;;4.40;99.90;;;;;;5037496;28;20057;-84
2022/01/22 10:15:10;;;;;;;9.55;5.07;;;4.40;99.90;;;;;;5034981;28;20083;-83
2022/01/22 10:17:46;;;;;;;13.60;5.07;;;4.50;99.90;;;;;;5051816;28;20393;-83
2022/01/22 10:20:21;;;;;;;10.40;4.38;;;4.50;99.90;;;;;;5032242;28;20052;-84
2022/01/22 10:22:48;;;;;;;9.85;4.28;;;4.60;99.90;;;;;;4777640;28;7810474;-84
2022/01/22 10:25:29;;;;;;;10.88;4.18;;;4.60;99.90;;;;;;5033598;28;20413;-84
2022/01/22 10:28:20;;;;;;;11.38;4.20;;;4.80;99.90;;;;;;5018811;28;20132;-84
2022/01/22 10:30:47;;;;;;;7.82;4.00;;;4.90;99.90;;;;;;5070798;28;20051;-84
2022/01/22 10:33:24;;;;;;;6.68;4.10;;;5.00;99.90;;;;;;5070280;28;20082;-84
2022/01/22 10:35:50;;;;;;;8.50;4.43;;;5.00;99.90;;;;;;5048865;28;20470;-83
2022/01/22 10:38:19;;;;;;;9.05;4.38;;;5.10;99.90;;;;;;5054591;28;20044;-84
2022/01/22 10:40:46;;;;;;;9.18;4.57;;;5.20;99.90;;;;;;5043827;28;20017;-83
2022/01/22 10:43:34;;;;;;;5.82;3.95;;;5.20;99.90;;;;;;5055663;28;20505;-84
2022/01/22 10:46:33;;;;;;;7.45;3.88;;;5.30;99.90;;;;;;5072375;28;20024;-83
2022/01/22 10:49:15;;;;;;;8.48;3.80;;;5.40;99.90;;;;;;5035414;28;20504;-83
2022/01/22 10:51:54;;;;;;;9.15;4.18;;;5.50;99.90;;;;;;5054443;28;20033;-83
2022/01/22 10:54:39;;;;;;;12.52;4.32;;;5.60;99.90;;;;;;5036083;28;20026;-84
2022/01/22 10:57:14;;;;;;;12.05;4.00;;;5.80;99.90;;;;;;5045655;28;20202;-83
2022/01/22 10:59:58;;;;;;;8.07;4.05;;;5.80;99.90;;;;;;5036110;28;20402;-84
2022/01/22 11:02:38;;;;;;;10.00;4.05;;;5.90;99.90;;;;;;5035732;28;20480;-84
2022/01/22 11:05:05;;;;;;;8.18;4.50;;;5.90;99.90;;;;;;5019377;28;20029;-83
2022/01/22 11:07:41;;;;;;;9.80;4.03;;;5.90;99.90;;;;;;5036715;28;20032;-83
2022/01/22 11:10:07;;;;;;;10.10;4.40;;;5.90;99.90;;;;;;5039027;28;20040;-83
2022/01/22 11:12:33;;;;;;;10.70;4.13;;;5.90;99.90;;;;;;5037824;28;20029;-84
2022/01/22 11:14:59;;;;;;;6.53;4.30;;;5.90;99.90;;;;;;5039092;28;20025;-84
2022/01/22 11:17:31;;;;;;;9.07;3.83;;;5.90;99.90;;;;;;5036721;28;20074;-83
2022/01/22 11:19:58;;;;;;;9.50;3.95;;;6.00;99.90;;;;;;5042920;28;20036;-83
2022/01/22 11:22:27;;;;;;;11.93;4.45;;;6.00;99.90;;;;;;5018706;28;20040;-83
2022/01/22 11:24:56;;;;;;;7.25;4.22;;;5.90;99.90;;;;;;5053230;28;20028;-83
2022/01/22 11:27:22;;;;;;;12.25;4.63;;;5.80;99.90;;;;;;5034819;28;20060;-83
2022/01/22 11:30:05;;;;;;;8.55;4.13;;;5.80;99.90;;;;;;5037112;28;20055;-83
2022/01/22 11:32:41;;;;;;;11.05;4.35;;;5.80;99.90;;;;;;5035732;28;20040;-83
2022/01/22 11:35:12;;;;;;;10.55;4.53;;;5.70;99.90;;;;;;5048299;28;20082;-83
2022/01/22 11:37:51;;;;;;;;;;;5.70;99.90;;;;;;5039181;28;20028;-84
2022/01/22 11:40:24;;;;;;;6.65;3.78;;;5.60;99.90;;;;;;5058854;28;19956;-84
2022/01/22 11:43:00;;;;;;;10.18;4.55;;;5.70;99.90;;;;;;5023321;28;20032;-83
2022/01/22 11:45:30;;;;;;;11.95;4.43;;;5.70;99.90;;;;;;5055875;28;20149;-83
2022/01/22 11:48:20;;;;;;;9.25;4.50;;;5.90;99.90;;;;;;5038749;28;20039;-83
2022/01/22 11:50:52;;;;;;;9.30;4.30;;;6.00;99.90;;;;;;5020370;28;20055;-83
2022/01/22 11:53:32;;;;;;;8.90;3.90;;;6.00;99.90;;;;;;5034418;28;20025;-84
2022/01/22 11:56:07;;;;;;;;;;;6.00;99.90;;;;;;5034686;28;20021;-83
2022/01/22 11:58:34;;;;;;;6.68;3.78;;;6.10;99.90;;;;;;5051507;28;19948;-84
2022/01/22 12:00:59;;;;;;;13.65;4.45;;;6.10;99.90;;;;;;5051185;28;20493;-83
2022/01/22 12:03:25;;;;;;;7.93;3.78;;;6.20;99.90;;;;;;5052848;28;20043;-83
2022/01/22 12:05:53;;;;;;;7.82;4.32;;;6.20;99.90;;;;;;5036040;28;20071;-83
2022/01/22 12:08:23;;;;;;;9.82;4.18;;;6.30;99.90;;;;;;5051800;28;20356;-83
2022/01/22 12:16:17;;;;;;;7.80;3.03;;;6.20;99.90;;;;;;5070591;28;20086;-84
2022/01/22 12:18:56;;;;;;;4.13;2.58;;;6.10;99.90;;;;;;5051144;28;20380;-85
2022/01/22 12:21:39;;;;;;;3.40;2.00;;;6.00;99.90;;;;;;5021166;28;20485;-84
2022/01/22 12:24:07;;;;;;;3.03;1.98;;;5.90;99.90;;;;;;5031791;28;20382;-85
2022/01/22 12:26:39;;;;;;;6.47;3.08;;;5.80;99.90;;;;;;5051978;28;20040;-84
2022/01/22 12:29:26;;;;;;;2.58;1.73;;;5.70;99.90;;;;;;5049777;28;20032;-84
2022/01/22 12:32:17;;;;;;;2.80;1.83;;;5.60;99.90;;;;;;5052002;28;20028;-84
2022/01/22 12:34:56;;;;;;;3.42;1.92;;;5.60;99.90;;;;;;5051599;28;20036;-85
2022/01/22 12:37:23;;;;;;;3.80;2.03;;;5.60;99.90;;;;;;5046536;28;20354;-84
2022/01/22 12:39:52;;;;;;;5.47;1.63;;;5.50;99.90;;;;;;5031637;28;20041;-84
2022/01/22 12:42:31;;;;;;;2.63;1.83;;;5.50;99.90;;;;;;5069255;28;20340;-84
2022/01/22 12:45:06;;;;;;;3.67;2.28;;;5.50;99.90;;;;;;5037450;28;20037;-84
2022/01/22 12:47:33;;;;;;;2.45;1.83;;;5.40;99.90;;;;;;5019583;28;20493;-85
2022/01/22 12:50:08;;;;;;;4.72;2.13;;;5.40;99.90;;;;;;5035521;28;20043;-85
2022/01/22 12:52:34;;;;;;;3.22;2.10;;;5.40;99.90;;;;;;5067766;28;20436;-84
2022/01/22 12:55:13;;;;;;;2.83;1.77;;;5.40;99.90;;;;;;5035795;28;20090;-84
2022/01/22 12:57:42;;;;;;;7.72;1.92;;;5.40;99.90;;;;;;5066745;28;20016;-84
2022/01/22 13:00:12;;;;;;;3.63;1.80;;;5.40;99.90;;;;;;5024154;28;20346;-84
2022/01/22 13:02:51;;;;;;;1.73;1.58;;;5.30;99.90;;;;;;5040776;28;20033;-85
2022/01/22 13:05:19;;;;;;;4.00;2.13;;;5.30;99.90;;;;;;5041220;28;20075;-84
2022/01/22 13:07:59;;;;;;;3.60;1.92;;;5.30;99.90;;;;;;5038861;28;20028;-84
2022/01/22 13:10:32;;;;;;;4.43;2.25;;;5.20;99.90;;;;;;5069460;28;20032;-84
2022/01/22 13:12:59;;;;;;;5.00;2.55;;;5.20;99.90;;;;;;5051482;28;20062;-85
2022/01/22 13:15:27;;;;;;;3.75;2.08;;;5.20;99.90;;;;;;5077195;28;20051;-84
2022/01/22 13:18:03;;;;;;;4.32;2.20;;;5.20;99.90;;;;;;5040769;28;20461;-84
2022/01/22 13:20:32;;;;;;;3.88;1.90;;;5.30;99.90;;;;;;5056033;28;20043;-84
2022/01/22 13:23:02;;;;;;;3.63;2.00;;;5.30;99.90;;;;;;5056078;28;20036;-84
2022/01/22 13:25:28;;;;;;;3.83;2.22;;;5.30;99.90;;;;;;5024379;28;20060;-84
2022/01/22 13:28:14;;;;;;;4.25;1.92;;;5.30;99.90;;;;;;5040334;28;20072;-84
2022/01/22 13:30:56;;;;;;;3.85;1.67;;;5.30;99.90;;;;;;5024925;28;20171;-83
2022/01/22 13:33:31;;;;;;;5.45;2.40;;;5.40;99.90;;;;;;5044038;28;20032;-84
2022/01/22 13:36:11;;;;;;;2.05;1.75;;;5.40;99.90;;;;;;5044780;28;20056;-84
2022/01/22 13:49:32;;;;;;;5.53;2.10;;;5.30;99.90;;;;;;5097951;28;20042;-85
2022/01/22 13:52:03;;;;;;;2.17;1.52;;;5.40;99.90;;;;;;5080710;28;20021;-85
2022/01/22 13:54:38;;;;;;;5.05;2.33;;;5.30;99.90;;;;;;5079692;28;20098;-84
2022/01/22 13:57:08;;;;;;;4.43;2.00;;;5.30;99.90;;;;;;5077247;28;20070;-84
2022/01/22 13:59:45;;;;;;;5.05;2.10;;;5.20;99.90;;;;;;5061618;28;20388;-84
2022/01/22 14:05:08;;;;;;;3.17;1.88;;;5.10;99.90;;;;;;5096709;28;20051;-84
2022/01/22 14:07:45;;;;;;;3.35;2.00;;;5.00;99.90;;;;;;5030902;28;20033;-83
2022/01/22 14:10:20;;;;;;;2.97;2.05;;;5.00;99.90;;;;;;5054159;28;20374;-84
2022/01/22 14:12:54;;;;;;;3.60;2.03;;;4.90;99.90;;;;;;5020864;28;20039;-84
2022/01/22 14:15:26;;;;;;;6.60;2.35;;;4.90;99.90;;;;;;5037252;28;20032;-84
2022/01/22 14:20:57;;;;;;;2.88;1.65;;;4.90;99.90;;;;;;5060425;28;20026;-84
2022/01/22 14:23:34;;;;;;;3.05;1.80;;;4.80;99.90;;;;;;5065846;28;20380;-84
2022/01/22 14:26:24;;;;;;;3.30;2.10;;;4.80;99.90;;;;;;5063966;28;20084;-87
2022/01/22 14:29:07;;;;;;;1.98;1.40;;;4.80;99.90;;;;;;5046719;28;20400;-87
2022/01/22 14:31:53;;;;;;;3.47;1.75;;;4.70;99.90;;;;;;5044345;28;20101;-86
2022/01/22 14:34:36;;;;;;;3.58;1.85;;;4.70;99.90;;;;;;5061293;28;20062;-84
2022/01/22 14:37:06;;;;;;;4.32;1.70;;;4.70;99.90;;;;;;5064050;28;20092;-85
2022/01/22 14:45:26;;;;;;;6.15;1.85;;;4.70;99.90;;;;;;5046749;28;20082;-85
2022/01/22 14:47:54;;;;;;;3.55;1.95;;;4.70;99.90;;;;;;5041739;28;20029;-87
2022/01/22 14:50:21;;;;;;;2.53;1.52;;;4.70;99.90;;;;;;5027699;28;20405;-87
2022/01/22 14:52:58;;;;;;;2.75;1.85;;;4.70;99.90;;;;;;5039263;28;20028;-85
2022/01/22 14:55:26;;;;;;;3.75;1.52;;;4.60;99.90;;;;;;5051896;28;20064;-84
2022/01/22 14:57:53;;;;;;;3.45;2.03;;;4.60;99.90;;;;;;5052281;28;20397;-86
2022/01/22 15:00:26;;;;;;;4.28;1.60;;;4.60;99.90;;;;;;5044178;28;20037;-86
2022/01/22 15:02:52;;;;;;;4.22;2.00;;;4.60;99.90;;;;;;5066516;28;20366;-86
2022/01/22 15:05:17;;;;;;;4.07;2.22;;;4.60;99.90;;;;;;5069375;28;20032;-86